Argonne, Wisconsin
Current Conditions -  °F | °C
As of 8:55 PM on Thursday 18 Dec 2014 (Local Time) from KEGV Reporting Station
Clear Clear  
Wind Chill:   Ceiling: Unl
Heat Index:   Visibility: 7mi
Dew Point:   Wind: 0mph
Humidity: 90%   Direction: NA
Pressure: 30.21"   Gusts: NA
Location:  45.66°N, 88.88°W
Report Text: KEGV 190255Z AUTO 00000KT 7SM CLR M14/M15 A3021 RMK AO2 T11391152
Loading
Personal Weather Stations






























Interactive Weather Map New forecast layout! Learn more

10-Day Weather Forecast

Advertisements
Track Severe Weather on mobile